createdAt,value
2023-05-24T00:00:08.422Z,50.5539
2023-05-24T00:01:10.279Z,50.5505
2023-05-24T00:02:12.086Z,50.6086
2023-05-24T00:03:14.015Z,50.6798
2023-05-24T00:04:15.885Z,50.6112
2023-05-24T00:05:17.610Z,50.5673
2023-05-24T00:06:19.434Z,50.5379
2023-05-24T00:07:21.281Z,50.4168
2023-05-24T00:08:23.106Z,50.2432
2023-05-24T00:09:24.951Z,50.2015
2023-05-24T00:10:26.789Z,50.0907
2023-05-24T00:11:28.599Z,50.0603
2023-05-24T00:12:30.451Z,50.0825
2023-05-24T00:13:32.274Z,49.9879
2023-05-24T00:14:34.095Z,49.9580
2023-05-24T00:15:35.940Z,50.0256
2023-05-24T00:16:37.932Z,50.0971
2023-05-24T00:17:39.625Z,49.9852
2023-05-24T00:18:41.439Z,49.9876
2023-05-24T00:19:43.280Z,49.8942
2023-05-24T00:20:45.394Z,49.8851
2023-05-24T00:21:46.926Z,49.9781
2023-05-24T00:22:48.784Z,49.9304
2023-05-24T00:23:50.596Z,50.0428
2023-05-24T00:24:52.445Z,49.9596
2023-05-24T00:25:54.298Z,49.7993
2023-05-24T00:26:56.100Z,49.7537
2023-05-24T00:27:57.934Z,49.6802
2023-05-24T00:28:59.772Z,49.6948
2023-05-24T00:30:01.679Z,49.6104
2023-05-24T00:31:03.537Z,49.6617
2023-05-24T00:32:05.393Z,49.7454
2023-05-24T00:33:07.241Z,49.8263
2023-05-24T00:34:09.022Z,49.7764
2023-05-24T00:35:10.856Z,49.7286
2023-05-24T00:36:12.701Z,49.6792
2023-05-24T00:37:14.522Z,49.7514
2023-05-24T00:38:16.344Z,49.7839
2023-05-24T00:39:18.188Z,49.7834
2023-05-24T00:40:20.009Z,49.7613
2023-05-24T00:41:21.848Z,49.7080
2023-05-24T00:42:23.677Z,49.5882
2023-05-24T00:43:25.554Z,49.6233
2023-05-24T00:44:27.368Z,49.6188
2023-05-24T00:45:29.482Z,49.5432
2023-05-24T00:46:31.087Z,49.5161
2023-05-24T00:47:32.873Z,49.3788
2023-05-24T00:48:34.677Z,49.3401
2023-05-24T00:49:36.566Z,49.3020
2023-05-24T00:50:38.357Z,49.3347
2023-05-24T00:51:40.197Z,49.4124
2023-05-24T00:52:42.030Z,49.3948
2023-05-24T00:53:43.859Z,49.3308
2023-05-24T00:54:45.682Z,49.4004
2023-05-24T00:55:47.526Z,49.3512
2023-05-24T00:56:49.367Z,49.4318
2023-05-24T00:57:51.206Z,49.3530
2023-05-24T00:58:53.022Z,49.3432
2023-05-24T00:59:54.885Z,49.3026
2023-05-24T01:00:56.708Z,49.1713
2023-05-24T01:01:58.660Z,49.0838
2023-05-24T01:03:00.438Z,49.0849
2023-05-24T01:04:02.212Z,49.0545
2023-05-24T01:05:04.060Z,49.0386
2023-05-24T01:06:05.889Z,48.9978
2023-05-24T01:07:07.721Z,48.9727
2023-05-24T01:08:09.581Z,49.0123
2023-05-24T01:09:11.416Z,49.0581
2023-05-24T01:10:13.252Z,49.1774
2023-05-24T01:11:15.082Z,49.1788
2023-05-24T01:12:16.918Z,49.0513
2023-05-24T01:13:18.742Z,48.9808
2023-05-24T01:14:20.585Z,48.9558
2023-05-24T01:15:22.439Z,49.0328
2023-05-24T01:16:24.303Z,48.9855
2023-05-24T01:17:26.097Z,48.9372
2023-05-24T01:18:27.911Z,48.9237
2023-05-24T01:19:29.766Z,48.8518
2023-05-24T01:20:31.616Z,48.8120
2023-05-24T01:21:33.410Z,48.8705
2023-05-24T01:22:35.279Z,49.0038
2023-05-24T01:23:37.090Z,48.9414
2023-05-24T01:24:38.902Z,49.0867
2023-05-24T01:25:40.741Z,49.0496
2023-05-24T01:26:42.581Z,48.9902
2023-05-24T01:27:44.411Z,48.8433
2023-05-24T01:28:46.251Z,48.7726
2023-05-24T01:29:48.083Z,48.7193
2023-05-24T01:30:49.913Z,48.7755
2023-05-24T01:31:51.763Z,48.8501
2023-05-24T01:32:53.607Z,48.8375
2023-05-24T01:33:55.422Z,48.8751
2023-05-24T01:34:57.266Z,48.7833
2023-05-24T01:35:59.098Z,48.8295
2023-05-24T01:37:00.944Z,48.9172
2023-05-24T01:38:02.759Z,48.9676
2023-05-24T01:39:04.598Z,48.9602
2023-05-24T01:40:06.438Z,49.0793
2023-05-24T01:41:08.282Z,49.0481
2023-05-24T01:42:10.095Z,48.8908
2023-05-24T01:43:11.939Z,48.7565
2023-05-24T01:44:13.780Z,48.7233
2023-05-24T01:45:15.616Z,48.6350
2023-05-24T01:46:17.447Z,48.5380
2023-05-24T01:47:19.341Z,48.5334
2023-05-24T01:48:21.123Z,48.4907
2023-05-24T01:49:22.936Z,48.6070
2023-05-24T01:50:25.916Z,48.5849
2023-05-24T01:51:26.617Z,48.6245
2023-05-24T01:52:28.491Z,48.5658
2023-05-24T01:53:30.309Z,48.5289
2023-05-24T01:54:32.111Z,48.5283
2023-05-24T01:55:33.944Z,48.4712
2023-05-24T01:56:35.795Z,48.4910
2023-05-24T01:57:37.631Z,48.4131
2023-05-24T01:58:39.473Z,48.5114
2023-05-24T01:59:41.303Z,48.4438
2023-05-24T02:00:43.367Z,48.3260
2023-05-24T02:01:44.975Z,48.3411
2023-05-24T02:02:46.934Z,48.4175
2023-05-24T02:03:48.639Z,48.4091
2023-05-24T02:04:50.478Z,48.3920
2023-05-24T02:05:59.854Z,48.3971
2023-05-24T02:06:54.237Z,48.4637
2023-05-24T02:07:55.992Z,48.5265
2023-05-24T02:08:57.855Z,48.4805
2023-05-24T02:09:59.675Z,48.4457
2023-05-24T02:11:01.497Z,48.3307
2023-05-24T02:12:03.338Z,48.3389
2023-05-24T02:13:05.193Z,48.2996
2023-05-24T02:14:06.984Z,48.2815
2023-05-24T02:15:08.842Z,48.2353
2023-05-24T02:16:10.767Z,48.1927
2023-05-24T02:17:12.511Z,48.1634
2023-05-24T02:18:21.984Z,48.1027
2023-05-24T02:19:16.183Z,48.0649
2023-05-24T02:20:18.046Z,48.1202
2023-05-24T02:21:20.071Z,48.2022
2023-05-24T02:22:21.665Z,48.4244
2023-05-24T02:23:23.534Z,48.3985
2023-05-24T02:24:25.342Z,48.3708
2023-05-24T02:25:27.185Z,48.4733
2023-05-24T02:26:29.008Z,48.6092
2023-05-24T02:27:30.862Z,48.5998
2023-05-24T02:28:32.678Z,48.5296
2023-05-24T02:29:34.529Z,48.4525
2023-05-24T02:30:36.390Z,48.4347
2023-05-24T02:31:38.272Z,48.4499
2023-05-24T02:32:40.063Z,48.3721
2023-05-24T02:33:41.895Z,48.3065
2023-05-24T02:34:43.694Z,48.3525
2023-05-24T02:35:45.532Z,48.4823
2023-05-24T02:36:47.367Z,48.4672
2023-05-24T02:37:49.186Z,48.3528
2023-05-24T02:38:51.073Z,48.2508
2023-05-24T02:39:52.853Z,48.2644
2023-05-24T02:40:54.674Z,48.2963
2023-05-24T02:41:56.521Z,48.3805
2023-05-24T02:42:58.335Z,48.3623
2023-05-24T02:44:00.163Z,48.3190
2023-05-24T02:45:02.025Z,48.4594
2023-05-24T02:46:03.862Z,48.3995
2023-05-24T02:47:05.658Z,48.4158
2023-05-24T02:48:07.660Z,48.3556
2023-05-24T02:49:09.366Z,48.2799
2023-05-24T02:50:11.155Z,48.3469
2023-05-24T02:51:13.001Z,48.5926
2023-05-24T02:52:14.830Z,48.6219
2023-05-24T02:53:16.718Z,48.4839
2023-05-24T02:54:18.527Z,48.4254
2023-05-24T02:55:20.342Z,48.4678
2023-05-24T02:56:22.176Z,48.4204
2023-05-24T02:57:24.011Z,48.3172
2023-05-24T02:58:25.845Z,48.4618
2023-05-24T02:59:27.695Z,48.5940
2023-05-24T03:00:29.521Z,48.4744
2023-05-24T03:01:31.370Z,48.4556
2023-05-24T03:02:33.216Z,48.4103
2023-05-24T03:03:35.130Z,48.2922
2023-05-24T03:04:36.869Z,48.2227
2023-05-24T03:05:38.711Z,48.2503
2023-05-24T03:06:40.524Z,48.2611
2023-05-24T03:07:42.387Z,48.2729
2023-05-24T03:08:44.208Z,48.3355
2023-05-24T03:09:46.037Z,48.1966
2023-05-24T03:10:47.869Z,48.1955
2023-05-24T03:11:49.723Z,48.1911
2023-05-24T03:12:51.541Z,48.1748
2023-05-24T03:13:53.397Z,48.1627
2023-05-24T03:14:55.224Z,48.0997
2023-05-24T03:15:57.094Z,48.1105
2023-05-24T03:16:58.882Z,48.1355
2023-05-24T03:18:00.763Z,48.1988
2023-05-24T03:19:02.566Z,48.1970
2023-05-24T03:20:04.448Z,48.3053
2023-05-24T03:21:06.291Z,48.2834
2023-05-24T03:22:15.581Z,48.2339
2023-05-24T03:23:09.902Z,48.1425
2023-05-24T03:24:11.750Z,48.1533
2023-05-24T03:25:13.614Z,48.1409
2023-05-24T03:26:15.410Z,48.2012
2023-05-24T03:27:17.244Z,48.3158
2023-05-24T03:28:19.090Z,48.4519
2023-05-24T03:29:20.901Z,48.5244
2023-05-24T03:30:22.759Z,48.4512
2023-05-24T03:31:24.613Z,48.3286
2023-05-24T03:32:26.425Z,48.3174
2023-05-24T03:33:28.252Z,48.3258
2023-05-24T03:34:30.135Z,48.4471
2023-05-24T03:35:32.048Z,48.3728
2023-05-24T03:36:33.760Z,48.5215
2023-05-24T03:37:35.581Z,48.5425
2023-05-24T03:38:37.435Z,48.5275
2023-05-24T03:39:39.256Z,48.5332
2023-05-24T03:40:41.401Z,48.5168
2023-05-24T03:41:42.919Z,48.4105
2023-05-24T03:42:44.752Z,48.4310
2023-05-24T03:43:46.597Z,48.4731
2023-05-24T03:44:48.455Z,48.4687
2023-05-24T03:45:50.291Z,48.4256
2023-05-24T03:46:52.080Z,48.4875
2023-05-24T03:47:53.963Z,48.4776
2023-05-24T03:48:55.778Z,48.6104
2023-05-24T03:49:57.613Z,48.5556
2023-05-24T03:50:59.433Z,48.4827
2023-05-24T03:52:01.281Z,48.4080
2023-05-24T03:53:03.133Z,48.4195
2023-05-24T03:54:04.943Z,48.4660
2023-05-24T03:55:06.799Z,48.4018
2023-05-24T03:56:08.612Z,48.4458
2023-05-24T03:57:10.439Z,48.3423
2023-05-24T03:58:12.296Z,48.2502
2023-05-24T03:59:14.110Z,48.2531
2023-05-24T04:00:15.925Z,48.3222
2023-05-24T04:01:32.152Z,48.3991
2023-05-24T04:02:21.975Z,48.4213
2023-05-24T04:03:22.525Z,48.5305
2023-05-24T04:04:24.210Z,48.5641
2023-05-24T04:05:25.580Z,48.6784
2023-05-24T04:06:27.121Z,48.5565
2023-05-24T04:07:28.771Z,48.4950
2023-05-24T04:08:30.611Z,48.4340
2023-05-24T04:09:32.455Z,48.4512
2023-05-24T04:10:34.279Z,48.5037
2023-05-24T04:11:36.103Z,48.5501
2023-05-24T04:12:37.971Z,48.5085
2023-05-24T04:13:39.806Z,48.6245
2023-05-24T04:14:41.618Z,48.5658
2023-05-24T04:15:43.453Z,48.5119
2023-05-24T04:16:52.838Z,48.5487
2023-05-24T04:17:47.237Z,48.4796
2023-05-24T04:18:49.174Z,48.4234
2023-05-24T04:19:50.815Z,48.4194
2023-05-24T04:20:52.647Z,48.6257
2023-05-24T04:21:54.458Z,48.6404
2023-05-24T04:22:56.379Z,48.7435
2023-05-24T04:24:05.649Z,48.7442
2023-05-24T04:25:00.199Z,48.6014
2023-05-24T04:26:01.794Z,48.5217
2023-05-24T04:27:03.649Z,48.4610
2023-05-24T04:28:05.514Z,48.3659
2023-05-24T04:29:07.295Z,48.2748
2023-05-24T04:30:09.154Z,48.2421
2023-05-24T04:31:11.004Z,48.3026
2023-05-24T04:32:12.804Z,48.4205
2023-05-24T04:33:14.762Z,48.3654
2023-05-24T04:34:16.550Z,48.3532
2023-05-24T04:35:18.431Z,48.3251
2023-05-24T04:36:20.235Z,48.4489
2023-05-24T04:37:22.067Z,48.4861
2023-05-24T04:38:23.904Z,48.5847
2023-05-24T04:39:25.755Z,48.7958
2023-05-24T04:40:27.580Z,48.8042
2023-05-24T04:41:29.412Z,48.6752
2023-05-24T04:42:31.256Z,48.6543
2023-05-24T04:43:33.084Z,48.7018
2023-05-24T04:44:34.905Z,48.6625
2023-05-24T04:45:36.760Z,48.5335
2023-05-24T04:46:38.618Z,48.6090
2023-05-24T04:47:40.445Z,48.7629
2023-05-24T04:48:42.266Z,48.7382
2023-05-24T04:49:44.152Z,48.6955
2023-05-24T04:50:45.948Z,48.6512
2023-05-24T04:51:47.771Z,48.6602
2023-05-24T04:52:49.602Z,48.6133
2023-05-24T04:53:51.442Z,48.7009
2023-05-24T04:54:53.269Z,48.6150
2023-05-24T04:55:55.132Z,48.6557
2023-05-24T04:56:56.961Z,48.7376
2023-05-24T04:57:58.801Z,48.8301
2023-05-24T04:59:00.632Z,48.7868
2023-05-24T05:00:02.470Z,48.6983
2023-05-24T05:01:04.298Z,48.8744
2023-05-24T05:02:06.212Z,48.9960
2023-05-24T05:03:08.027Z,48.9486
2023-05-24T05:04:09.875Z,49.1630
2023-05-24T05:05:11.623Z,49.2408
2023-05-24T05:06:13.500Z,49.2567
2023-05-24T05:07:15.316Z,49.1454
2023-05-24T05:08:17.133Z,49.1915
2023-05-24T05:09:18.972Z,49.2162
2023-05-24T05:10:23.678Z,49.1537
2023-05-24T05:11:22.691Z,48.9704
2023-05-24T05:12:24.458Z,48.8025
2023-05-24T05:13:26.299Z,48.7369
2023-05-24T05:14:28.151Z,48.6836
2023-05-24T05:15:29.952Z,48.6420
2023-05-24T05:16:31.841Z,48.6807
2023-05-24T05:17:33.658Z,48.7368
2023-05-24T05:18:35.444Z,48.6701
2023-05-24T05:19:37.310Z,48.6109
2023-05-24T05:20:39.191Z,48.7619
2023-05-24T05:21:40.963Z,48.7953
2023-05-24T05:22:42.811Z,48.8406
2023-05-24T05:23:44.617Z,48.8650
2023-05-24T05:24:46.455Z,49.0036
2023-05-24T05:25:48.281Z,49.1007
2023-05-24T05:26:58.125Z,49.0867
2023-05-24T05:27:59.465Z,49.0435
2023-05-24T05:28:53.800Z,49.0557
2023-05-24T05:29:55.636Z,49.0608
2023-05-24T05:30:57.464Z,49.0027
2023-05-24T05:31:59.374Z,48.9388
2023-05-24T05:33:01.180Z,48.8010
2023-05-24T05:34:02.957Z,48.7984
2023-05-24T05:35:04.852Z,48.6859
2023-05-24T05:36:06.622Z,48.8473
2023-05-24T05:37:08.478Z,48.9271
2023-05-24T05:38:11.111Z,48.9406
2023-05-24T05:39:12.123Z,49.0894
2023-05-24T05:40:13.953Z,49.1849
2023-05-24T05:41:15.804Z,49.3095
2023-05-24T05:42:17.636Z,49.4621
2023-05-24T05:43:19.478Z,49.4077
2023-05-24T05:44:21.298Z,49.3094
2023-05-24T05:45:23.127Z,49.1038
2023-05-24T05:46:25.015Z,49.0136
2023-05-24T05:47:26.849Z,48.9387
2023-05-24T05:48:28.642Z,48.9765
2023-05-24T05:49:30.458Z,49.0883
2023-05-24T05:50:32.295Z,49.0162
2023-05-24T05:51:34.125Z,49.0268
2023-05-24T05:52:35.983Z,49.0759
2023-05-24T05:53:37.805Z,49.0867
2023-05-24T05:54:39.633Z,48.9207
2023-05-24T05:55:41.491Z,48.9597
2023-05-24T05:56:43.321Z,49.0382
2023-05-24T05:57:45.134Z,48.9516
2023-05-24T05:58:46.967Z,49.1041
2023-05-24T05:59:48.804Z,49.1587
2023-05-24T06:00:50.657Z,48.9621
2023-05-24T06:01:52.475Z,48.9318
2023-05-24T06:02:54.353Z,49.0543
2023-05-24T06:03:56.218Z,49.1754
2023-05-24T06:04:58.210Z,49.1160
2023-05-24T06:05:59.837Z,49.0155
2023-05-24T06:07:01.699Z,48.8660
2023-05-24T06:08:03.497Z,48.9660
2023-05-24T06:09:05.339Z,49.1212
2023-05-24T06:10:07.152Z,49.1472
2023-05-24T06:11:08.987Z,49.1784
2023-05-24T06:12:10.842Z,49.2381
2023-05-24T06:13:12.678Z,49.1621
2023-05-24T06:14:14.520Z,49.0765
2023-05-24T06:15:16.347Z,49.1365
2023-05-24T06:16:18.244Z,49.1006
2023-05-24T06:17:20.024Z,48.9376
2023-05-24T06:18:21.880Z,48.9719
2023-05-24T06:19:23.677Z,49.0036
2023-05-24T06:20:25.577Z,48.9740
2023-05-24T06:21:27.354Z,49.0187
2023-05-24T06:22:29.191Z,49.0775
2023-05-24T06:23:31.034Z,48.9812
2023-05-24T06:24:32.889Z,49.0504
2023-05-24T06:25:34.707Z,49.0932
2023-05-24T06:26:36.523Z,49.0057
2023-05-24T06:27:38.368Z,48.9213
2023-05-24T06:28:40.221Z,48.7867
2023-05-24T06:29:49.671Z,48.9144
2023-05-24T06:30:51.470Z,49.0262
2023-05-24T06:31:45.778Z,49.0097
2023-05-24T06:32:47.622Z,48.9632
2023-05-24T06:34:02.393Z,48.9610
2023-05-24T06:34:54.231Z,49.0673
2023-05-24T06:35:54.771Z,49.0981
2023-05-24T06:36:56.332Z,49.1954
2023-05-24T06:37:57.894Z,49.2501
2023-05-24T06:38:59.445Z,49.1545
2023-05-24T06:40:01.025Z,49.0535
2023-05-24T06:41:02.537Z,49.0092
2023-05-24T06:42:04.090Z,49.1036
2023-05-24T06:43:05.911Z,49.1557
2023-05-24T06:44:07.739Z,49.1076
2023-05-24T06:45:09.562Z,49.0778
2023-05-24T06:46:11.391Z,49.0690
2023-05-24T06:47:13.298Z,48.9658
2023-05-24T06:48:15.155Z,49.0329
2023-05-24T06:49:16.907Z,49.0146
2023-05-24T06:50:18.764Z,48.9017
2023-05-24T06:51:20.615Z,48.9025
2023-05-24T06:52:22.429Z,48.7983
2023-05-24T06:53:24.264Z,49.0452
2023-05-24T06:54:26.083Z,49.1537
2023-05-24T06:55:27.921Z,49.1054
2023-05-24T06:56:29.765Z,49.1133
2023-05-24T06:57:31.594Z,49.1376
2023-05-24T06:58:33.431Z,49.1265
2023-05-24T06:59:35.265Z,49.0954
2023-05-24T07:00:37.102Z,49.1680
2023-05-24T07:01:39.021Z,48.9994
2023-05-24T07:02:40.793Z,48.9497
2023-05-24T07:03:42.677Z,49.0176
2023-05-24T07:04:44.524Z,48.9427
2023-05-24T07:05:46.278Z,48.9170
2023-05-24T07:06:48.132Z,49.0142
2023-05-24T07:07:49.929Z,49.0322
2023-05-24T07:08:51.754Z,49.0214
2023-05-24T07:09:53.605Z,49.0133
2023-05-24T07:10:55.439Z,49.0547
2023-05-24T07:11:57.265Z,49.0551
2023-05-24T07:12:59.100Z,48.9196
2023-05-24T07:14:01.023Z,48.8687
2023-05-24T07:15:02.756Z,48.7711
2023-05-24T07:16:04.619Z,48.6768
2023-05-24T07:17:06.607Z,48.6508
2023-05-24T07:18:08.293Z,48.8626
2023-05-24T07:19:10.097Z,48.8568
2023-05-24T07:20:12.008Z,48.7362
2023-05-24T07:21:13.771Z,48.7145
2023-05-24T07:22:15.751Z,48.7968
2023-05-24T07:23:17.457Z,48.7896
2023-05-24T07:24:19.337Z,48.8247
2023-05-24T07:25:28.655Z,48.6717
2023-05-24T07:26:22.986Z,48.5446
2023-05-24T07:27:24.790Z,48.5394
2023-05-24T07:28:26.679Z,48.4828
2023-05-24T07:29:28.482Z,48.5241
2023-05-24T07:30:32.648Z,48.5113
2023-05-24T07:31:32.141Z,48.4468
2023-05-24T07:32:34.107Z,48.4644
2023-05-24T07:33:35.866Z,48.4170
2023-05-24T07:34:37.651Z,48.4532
2023-05-24T07:35:39.504Z,48.4930
2023-05-24T07:36:41.329Z,48.5267
2023-05-24T07:37:43.184Z,48.4210
2023-05-24T07:38:45.009Z,48.3802
2023-05-24T07:39:46.854Z,48.2991
2023-05-24T07:40:48.687Z,48.2959
2023-05-24T07:41:50.499Z,48.3557
2023-05-24T07:42:52.359Z,48.2726
2023-05-24T07:43:54.183Z,48.4871
2023-05-24T07:44:56.013Z,48.5026
2023-05-24T07:45:57.863Z,48.5260
2023-05-24T07:46:59.710Z,48.3907
2023-05-24T07:48:01.519Z,48.4990
2023-05-24T07:49:03.359Z,48.5517
2023-05-24T07:50:05.181Z,48.4190
2023-05-24T07:51:07.018Z,48.2631
2023-05-24T07:52:08.831Z,48.1605
2023-05-24T07:53:10.690Z,48.1262
2023-05-24T07:54:12.511Z,48.0743
2023-05-24T07:55:14.353Z,48.0308
2023-05-24T07:56:16.173Z,48.1855
2023-05-24T07:57:18.007Z,48.3896
2023-05-24T07:58:19.845Z,48.3881
2023-05-24T07:59:21.689Z,48.2935
2023-05-24T08:00:23.527Z,48.2001
2023-05-24T08:01:25.379Z,48.0970
2023-05-24T08:02:27.254Z,47.9283
2023-05-24T08:03:29.189Z,47.8734
2023-05-24T08:04:30.867Z,47.7747
2023-05-24T08:05:32.673Z,47.6871
2023-05-24T08:06:34.619Z,47.5332
2023-05-24T08:07:36.357Z,47.4670
2023-05-24T08:08:38.221Z,47.4750
2023-05-24T08:09:40.030Z,47.4511
2023-05-24T08:10:41.867Z,47.4889
2023-05-24T08:11:43.796Z,47.4020
2023-05-24T08:12:45.533Z,47.3915
2023-05-24T08:13:47.358Z,47.3296
2023-05-24T08:14:49.206Z,47.2669
2023-05-24T08:15:51.020Z,47.2311
2023-05-24T08:16:52.911Z,47.2197
2023-05-24T08:17:54.745Z,47.1294
2023-05-24T08:18:56.606Z,47.0002
2023-05-24T08:19:58.393Z,46.9014
2023-05-24T08:21:00.202Z,46.7819
2023-05-24T08:22:02.048Z,46.6437
2023-05-24T08:23:03.872Z,46.4604
2023-05-24T08:24:08.438Z,46.3103
2023-05-24T08:25:07.777Z,46.2602
2023-05-24T08:26:09.390Z,46.1371
2023-05-24T08:27:11.197Z,45.9602
2023-05-24T08:28:20.636Z,45.8649
2023-05-24T08:29:14.886Z,45.7494
2023-05-24T08:30:16.707Z,45.6753
2023-05-24T08:31:18.596Z,45.5739
2023-05-24T08:32:20.391Z,45.5190
2023-05-24T08:33:22.215Z,45.4610
2023-05-24T08:34:24.052Z,45.3734
2023-05-24T08:35:25.888Z,45.2900
2023-05-24T08:36:35.342Z,45.2370
2023-05-24T08:37:29.640Z,45.1544
2023-05-24T08:38:31.450Z,45.1025
2023-05-24T08:39:33.552Z,45.0516
2023-05-24T08:40:35.116Z,45.0201
2023-05-24T08:41:37.051Z,44.9253
2023-05-24T08:42:38.794Z,44.8905
2023-05-24T08:43:40.622Z,44.8502
2023-05-24T08:44:42.475Z,44.8057
2023-05-24T08:45:44.801Z,44.8336
2023-05-24T08:46:46.235Z,44.7899
2023-05-24T08:47:48.131Z,44.8348
2023-05-24T08:48:49.837Z,44.7613
2023-05-24T08:49:51.671Z,44.7234
2023-05-24T08:50:53.473Z,44.6582
2023-05-24T08:51:55.311Z,44.6043
2023-05-24T08:52:57.129Z,44.6352
2023-05-24T08:53:59.003Z,44.7075
2023-05-24T08:55:00.804Z,44.6584
2023-05-24T08:56:02.657Z,44.5640
2023-05-24T08:57:04.512Z,44.4660
2023-05-24T08:58:06.330Z,44.3552
2023-05-24T08:59:08.181Z,44.3196
2023-05-24T09:00:09.994Z,44.2954
2023-05-24T09:01:11.863Z,44.2148
2023-05-24T09:02:13.819Z,44.1708
2023-05-24T09:03:15.577Z,44.1953
2023-05-24T09:04:17.383Z,44.1470
2023-05-24T09:05:19.156Z,44.1132
2023-05-24T09:06:20.955Z,44.1287
2023-05-24T09:07:22.803Z,44.0687
2023-05-24T09:08:24.655Z,44.0446
2023-05-24T09:09:26.465Z,43.9784
2023-05-24T09:10:31.229Z,43.9558
2023-05-24T09:11:32.912Z,43.8581
2023-05-24T09:12:38.195Z,43.8338
2023-05-24T09:13:36.044Z,43.8217
2023-05-24T09:14:36.570Z,43.7478
2023-05-24T09:15:38.182Z,43.6856
2023-05-24T09:16:39.716Z,43.6122
2023-05-24T09:17:41.278Z,43.5350
2023-05-24T09:18:42.987Z,43.4833
2023-05-24T09:19:44.793Z,43.4056
2023-05-24T09:20:46.998Z,43.3035
2023-05-24T09:21:48.556Z,43.3183
2023-05-24T09:22:50.282Z,43.3159
2023-05-24T09:23:52.133Z,43.2611
2023-05-24T09:24:53.991Z,43.1936
2023-05-24T09:25:55.806Z,43.1016
2023-05-24T09:26:57.643Z,42.9720
2023-05-24T09:27:59.508Z,42.9009
2023-05-24T09:29:01.290Z,42.8075
2023-05-24T09:30:03.149Z,42.7833
2023-05-24T09:31:07.781Z,42.6725
2023-05-24T09:32:06.840Z,42.6549
2023-05-24T09:33:08.703Z,42.6781
2023-05-24T09:34:10.503Z,42.6220
2023-05-24T09:35:12.328Z,42.6181
2023-05-24T09:36:14.148Z,42.6219
2023-05-24T09:37:16.001Z,42.6811
2023-05-24T09:38:17.837Z,42.6478
2023-05-24T09:39:19.653Z,42.5458
2023-05-24T09:40:21.508Z,42.4322
2023-05-24T09:41:23.330Z,42.4092
2023-05-24T09:42:25.175Z,42.4003
2023-05-24T09:43:27.021Z,42.4208
2023-05-24T09:44:28.847Z,42.3599
2023-05-24T09:45:30.653Z,42.3982
2023-05-24T09:46:32.548Z,42.3187
2023-05-24T09:47:34.388Z,42.3631
2023-05-24T09:48:36.192Z,42.3617
2023-05-24T09:49:38.035Z,42.2940
2023-05-24T09:50:39.941Z,42.3141
2023-05-24T09:51:41.718Z,42.3637
2023-05-24T09:52:43.530Z,42.2853
2023-05-24T09:53:45.404Z,42.2977
2023-05-24T09:54:47.210Z,42.2261
2023-05-24T09:55:49.064Z,42.2942
2023-05-24T09:56:50.867Z,42.3465
2023-05-24T09:57:52.718Z,42.2890
2023-05-24T09:58:54.562Z,42.2809
2023-05-24T09:59:56.384Z,42.2741
2023-05-24T10:00:58.257Z,42.2934
2023-05-24T10:02:00.090Z,42.3406
2023-05-24T10:03:01.942Z,42.3480
2023-05-24T10:04:06.118Z,42.4261
2023-05-24T10:05:06.880Z,42.4242
2023-05-24T10:06:08.439Z,42.5570
2023-05-24T10:07:10.044Z,42.4747
2023-05-24T10:08:11.574Z,42.4455
2023-05-24T10:09:13.112Z,42.3920
2023-05-24T10:10:14.788Z,42.3299
2023-05-24T10:11:16.573Z,42.2903
2023-05-24T10:12:18.425Z,42.2259
2023-05-24T10:13:20.263Z,42.1996
2023-05-24T10:14:22.114Z,42.1692
2023-05-24T10:15:23.945Z,42.2798
2023-05-24T10:16:25.845Z,42.3021
2023-05-24T10:17:27.687Z,42.4246
2023-05-24T10:18:29.437Z,42.4109
2023-05-24T10:19:31.276Z,42.4165
2023-05-24T10:20:33.133Z,42.3118
2023-05-24T10:21:35.022Z,42.2909
2023-05-24T10:22:36.841Z,42.2840
2023-05-24T10:23:38.665Z,42.2658
2023-05-24T10:24:40.469Z,42.1340
2023-05-24T10:25:42.316Z,42.0570
2023-05-24T10:26:44.166Z,41.9938
2023-05-24T10:27:46.094Z,41.9843
2023-05-24T10:28:47.831Z,41.9375
2023-05-24T10:29:49.679Z,41.8317
2023-05-24T10:30:51.525Z,41.8256
2023-05-24T10:31:53.425Z,41.8363
2023-05-24T10:32:55.262Z,41.7776
2023-05-24T10:34:04.110Z,41.7688
2023-05-24T10:34:59.847Z,41.7471
2023-05-24T10:36:00.686Z,41.7619
2023-05-24T10:37:02.573Z,41.7925
2023-05-24T10:38:04.390Z,41.8000
2023-05-24T10:39:06.221Z,41.7429
2023-05-24T10:40:08.033Z,41.7658
2023-05-24T10:41:09.922Z,41.8496
2023-05-24T10:42:11.715Z,41.9105
2023-05-24T10:43:13.532Z,41.9887
2023-05-24T10:44:15.400Z,41.9393
2023-05-24T10:45:17.203Z,41.8007
2023-05-24T10:46:19.094Z,41.7493
2023-05-24T10:47:20.887Z,41.7034
2023-05-24T10:48:22.777Z,41.6203
2023-05-24T10:49:24.572Z,41.5383
2023-05-24T10:50:26.416Z,41.4609
2023-05-24T10:51:28.234Z,41.4073
2023-05-24T10:52:30.137Z,41.2845
2023-05-24T10:53:31.976Z,41.3190
2023-05-24T10:54:33.738Z,41.2499
2023-05-24T10:55:35.596Z,41.2899
2023-05-24T10:56:37.416Z,41.3135
2023-05-24T10:57:39.251Z,41.3317
2023-05-24T10:58:41.203Z,41.2619
2023-05-24T10:59:42.919Z,41.2244
2023-05-24T11:00:44.754Z,41.1986
2023-05-24T11:01:46.703Z,41.1012
2023-05-24T11:02:48.464Z,41.0693
2023-05-24T11:03:50.247Z,40.9799
2023-05-24T11:04:52.156Z,40.9949
2023-05-24T11:05:54.045Z,40.9985
2023-05-24T11:06:55.798Z,41.0323
2023-05-24T11:07:57.618Z,41.0095
2023-05-24T11:08:59.446Z,41.0518
2023-05-24T11:10:01.322Z,41.0603
2023-05-24T11:11:15.013Z,41.0157
2023-05-24T11:12:08.121Z,41.0832
2023-05-24T11:13:08.759Z,41.1395
2023-05-24T11:14:10.240Z,41.1357
2023-05-24T11:15:11.793Z,41.1510
2023-05-24T11:16:13.393Z,41.1127
2023-05-24T11:17:14.921Z,41.1157
2023-05-24T11:18:16.602Z,41.1533
2023-05-24T11:19:18.044Z,41.1463
2023-05-24T11:20:19.634Z,41.1608
2023-05-24T11:21:21.445Z,41.1447
2023-05-24T11:22:23.299Z,41.1612
2023-05-24T11:23:25.170Z,41.1548
2023-05-24T11:24:26.978Z,41.0904
2023-05-24T11:25:28.801Z,41.0595
2023-05-24T11:26:30.638Z,41.1191
2023-05-24T11:27:32.480Z,41.2578
2023-05-24T11:28:34.377Z,41.3647
2023-05-24T11:29:38.193Z,41.2710
2023-05-24T11:30:38.002Z,41.2620
2023-05-24T11:31:42.440Z,41.2260
2023-05-24T11:32:43.146Z,41.1795
2023-05-24T11:33:44.606Z,41.1931
2023-05-24T11:34:46.196Z,41.2085
2023-05-24T11:35:47.746Z,41.2550
2023-05-24T11:36:49.301Z,41.2361
2023-05-24T11:37:50.854Z,41.2379
2023-05-24T11:38:52.683Z,41.2661
2023-05-24T11:39:54.491Z,41.3185
2023-05-24T11:40:56.329Z,41.3081
2023-05-24T11:41:58.170Z,41.3134
2023-05-24T11:43:00.055Z,41.3092
2023-05-24T11:44:01.880Z,41.2790
2023-05-24T11:45:03.704Z,41.2575
2023-05-24T11:46:05.587Z,41.3013
2023-05-24T11:47:07.343Z,41.2795
2023-05-24T11:48:09.236Z,41.3234
2023-05-24T11:49:11.039Z,41.3470
2023-05-24T11:50:12.892Z,41.3739
2023-05-24T11:51:14.714Z,41.3582
2023-05-24T11:52:16.549Z,41.3912
2023-05-24T11:53:18.372Z,41.3584
2023-05-24T11:54:20.210Z,41.3382
2023-05-24T11:55:22.052Z,41.3342
2023-05-24T11:56:23.885Z,41.3930
2023-05-24T11:57:25.762Z,41.4343
2023-05-24T11:58:27.574Z,41.3918
2023-05-24T11:59:29.425Z,41.3847
2023-05-24T12:00:31.361Z,41.4294
2023-05-24T12:01:33.072Z,41.3699
2023-05-24T12:02:35.011Z,41.3740
2023-05-24T12:03:36.897Z,41.3572
2023-05-24T12:04:38.664Z,41.4082
2023-05-24T12:05:40.420Z,41.3836
2023-05-24T12:06:42.252Z,41.4323
2023-05-24T12:07:44.119Z,41.4462
2023-05-24T12:08:45.950Z,41.5260
2023-05-24T12:09:47.794Z,41.6092
2023-05-24T12:10:49.610Z,41.5984
2023-05-24T12:11:51.443Z,41.5331
2023-05-24T12:12:53.289Z,41.5430
2023-05-24T12:13:55.097Z,41.4546
2023-05-24T12:14:56.936Z,41.4884
2023-05-24T12:15:58.835Z,41.4521
2023-05-24T12:17:00.613Z,41.4971
2023-05-24T12:18:02.537Z,41.5149
2023-05-24T12:19:11.592Z,41.5102
2023-05-24T12:20:07.144Z,41.5376
2023-05-24T12:21:07.963Z,41.4739
2023-05-24T12:22:09.784Z,41.4712
2023-05-24T12:23:11.643Z,41.4344
2023-05-24T12:24:13.486Z,41.4444
2023-05-24T12:25:15.284Z,41.4045
2023-05-24T12:26:17.126Z,41.4336
2023-05-24T12:27:18.966Z,41.4666